Meath Environmental Platform

Observations for Trim Market St

Time AQI Temp °C Hum % Pres Pa CO μg/m³ H₂S μg/m³ NO μg/m³ NO₂ μg/m³ O₃ μg/m³ SO₂ μg/m³ PM1 μg/m³ PM2.5 μg/m³ PM10 μg/m³
Wednesday 8 July 2026
00:24 1 19.9 71 52,007 0 0 0 8.12 16.03 0 0 1.55 3.18
00:23 1 19.9 71 52,186 0 0 0 6.72 9.33 0 0.71 2.52 4.43
00:22 1 19.9 71 52,246 0 0 0 3.13 15.32 0 0 1.56 3.18
00:20 1 20 71 52,271 0 0 0 3.92 12.04 0 0 1.56 3.18
00:18 1 20 71 52,399 0 0 0 6.12 13.29 0 0.71 2.53 4.42
00:17 1 20 71 52,447 0 0 0 4.72 10.12 0 0.71 1.56 3.18
00:12 1 20.1 71 52,493 0 0 0 4.4 12.17 0 0 2.05 4.42
00:05 1 20.2 70 52,444 0 0 0 4.41 10.63 0 0 2.06 4.41
00:04 1 20.3 70 52,469 0 0 0 6.58 15.65 0 0 1.09 3.78
00:03 1 20.3 70 52,498 0 0 0 5.09 9.95 0 0 2.07 3.78
00:02 1 20.3 70 52,574 0 0 0 9.39 17.18 0 0.71 1.58 3.15
00:01 1 20.3 70 52,690 0 0 0 6.39 11.65 0 0.71 2.07 3.78
00:00 1 20.3 70 52,717 0 0 0 8.4 10.17 0 0.71 2.56 4.4
Tuesday 7 July 2026
23:59 1 20.4 70 52,800 0 0 0 3.38 13.01 0 0 1.1 2.53
23:58 1 20.4 70 52,867 0 0 0 8.89 12.44 0 0 2.08 3.77
23:57 1 20.4 70 52,998 0 0 0 4.6 13.04 0 0 2.08 5.65
23:56 1 20.4 70 53,037 0 0 0 5.51 12.18 0 0.71 2.57 5.02
23:47 1 20.6 70 53,222 0 0 0 4.96 12.26 0 0 1.6 3.14
23:45 1 20.7 70 53,358 0 0 0 5.33 10.58 0 1.43 3.06 5.02
23:44 1 20.7 70 53,432 0 0 0 6.84 14.91 0 0.71 2.58 4.39